Fairchild, Wisconsin
Current Conditions -  °F | °C
As of 4:35 PM on Friday 19 Dec 2014 (Local Time) from KBCK Reporting Station
Overcast Overcast  
Wind Chill: 29°   Ceiling: 2900
Heat Index: 29°   Visibility: 10mi
Dew Point: 19°   Wind: 0mph
Humidity: 66%   Direction: NA
Pressure: 30.26"   Gusts: NA
Location:  44.6°N, 90.96°W
Report Text: KBCK 192235Z AUTO 00000KT 10SM OVC029 M01/M07 A3026 RMK AO2 T10151071
Loading
Personal Weather Stations






























Interactive Weather Map New forecast layout! Learn more

10-Day Weather Forecast

Advertisements
Track Severe Weather on mobile